createdAt,value
2022-12-23T00:01:19.682Z,0.53
2022-12-23T00:03:46.452Z,0.54
2022-12-23T00:06:15.811Z,0.62
2022-12-23T00:08:43.373Z,0.56
2022-12-23T00:11:14.480Z,0.69
2022-12-23T00:13:57.341Z,0.59
2022-12-23T00:16:24.058Z,0.66
2022-12-23T00:18:50.748Z,0.60
2022-12-23T00:21:18.175Z,0.69
2022-12-23T00:23:47.818Z,0.63
2022-12-23T00:26:22.415Z,0.60
2022-12-23T00:28:52.491Z,0.81
2022-12-23T00:31:19.957Z,0.89
2022-12-23T00:33:49.541Z,0.75
2022-12-23T00:36:22.716Z,0.70
2022-12-23T00:39:05.622Z,0.69
2022-12-23T00:41:47.971Z,0.70
2022-12-23T00:44:14.697Z,0.87
2022-12-23T00:46:41.469Z,0.75
2022-12-23T00:49:23.408Z,0.72
2022-12-23T00:51:53.466Z,0.71
2022-12-23T00:54:20.134Z,0.85
2022-12-23T00:56:46.795Z,0.83
2022-12-23T00:59:13.437Z,0.81
2022-12-23T01:01:55.638Z,0.80
2022-12-23T01:04:37.813Z,0.80
2022-12-23T01:07:05.482Z,0.84
2022-12-23T01:09:32.170Z,0.86
2022-12-23T01:11:58.841Z,0.92
2022-12-23T01:14:25.858Z,1.00
2022-12-23T01:16:52.892Z,0.96
2022-12-23T01:19:19.551Z,0.95
2022-12-23T01:21:46.213Z,0.94
2022-12-23T01:24:12.908Z,0.93
2022-12-23T01:26:39.548Z,0.92
2022-12-23T01:29:06.149Z,0.93
2022-12-23T01:31:32.809Z,1.02
2022-12-23T01:33:59.500Z,1.18
2022-12-23T01:36:26.214Z,1.30
2022-12-23T01:38:52.854Z,1.31
2022-12-23T01:41:43.084Z,1.18
2022-12-23T01:44:40.236Z,1.12
2022-12-23T01:47:12.283Z,1.14
2022-12-23T01:49:40.237Z,1.12
2022-12-23T01:52:07.066Z,1.09
2022-12-23T01:54:35.098Z,1.08
2022-12-23T01:57:01.903Z,1.08
2022-12-23T01:59:43.805Z,1.09
2022-12-23T02:02:25.898Z,1.14
2022-12-23T02:04:53.680Z,1.09
2022-12-23T02:07:36.381Z,1.10
2022-12-23T02:10:04.689Z,1.05
2022-12-23T02:12:46.824Z,1.07
2022-12-23T02:15:48.138Z,1.07
2022-12-23T02:18:36.265Z,1.08
2022-12-23T02:21:18.087Z,1.06
2022-12-23T02:24:04.583Z,1.09
2022-12-23T02:26:50.844Z,1.12
2022-12-23T02:29:49.869Z,1.09
2022-12-23T02:32:45.608Z,1.08
2022-12-23T02:35:30.714Z,1.16
2022-12-23T02:38:05.024Z,1.16
2022-12-23T02:40:58.915Z,1.15
2022-12-23T02:43:29.994Z,1.13
2022-12-23T02:45:56.670Z,1.10
2022-12-23T02:48:30.020Z,1.23
2022-12-23T02:50:59.139Z,1.14
2022-12-23T02:53:30.875Z,1.13
2022-12-23T02:56:00.261Z,1.13
2022-12-23T02:58:32.151Z,1.13
2022-12-23T03:01:01.317Z,1.15
2022-12-23T03:03:28.482Z,1.14
2022-12-23T03:05:56.024Z,1.17
2022-12-23T03:08:27.995Z,1.18
2022-12-23T03:11:05.540Z,1.19
2022-12-23T03:14:02.641Z,1.18
2022-12-23T03:17:08.109Z,1.17
2022-12-23T03:20:03.112Z,1.46
2022-12-23T03:22:45.285Z,1.34
2022-12-23T03:25:21.671Z,1.32
2022-12-23T03:28:04.650Z,1.33
2022-12-23T03:30:33.133Z,1.31
2022-12-23T03:33:05.307Z,1.29
2022-12-23T03:35:39.935Z,1.31
2022-12-23T03:38:07.738Z,1.30
2022-12-23T03:40:39.105Z,1.51
2022-12-23T03:43:12.113Z,1.56
2022-12-23T03:45:46.684Z,1.42
2022-12-23T03:48:30.570Z,1.41
2022-12-23T03:51:03.226Z,1.46
2022-12-23T03:53:34.569Z,1.47
2022-12-23T03:56:07.222Z,1.73
2022-12-23T03:58:54.761Z,1.52
2022-12-23T04:01:32.448Z,1.43
2022-12-23T04:04:26.413Z,1.41
2022-12-23T04:07:00.916Z,1.45
2022-12-23T04:09:28.800Z,1.42
2022-12-23T04:11:58.129Z,1.61
2022-12-23T04:14:24.818Z,1.45
2022-12-23T04:16:55.134Z,1.67
2022-12-23T04:19:22.086Z,1.54
2022-12-23T04:21:48.821Z,1.70
2022-12-23T04:24:15.509Z,1.47
2022-12-23T04:26:43.407Z,1.52
2022-12-23T04:29:13.244Z,1.41
2022-12-23T04:31:39.931Z,1.36
2022-12-23T04:34:06.566Z,1.49
2022-12-23T04:36:33.449Z,1.36
2022-12-23T04:39:02.143Z,1.30
2022-12-23T04:41:28.827Z,1.47
2022-12-23T04:43:55.454Z,1.60
2022-12-23T04:46:22.127Z,1.63
2022-12-23T04:48:48.790Z,1.66
2022-12-23T04:51:15.443Z,1.58
2022-12-23T04:53:45.255Z,1.41
2022-12-23T04:56:11.905Z,1.36
2022-12-23T04:58:38.603Z,1.31
2022-12-23T05:01:07.791Z,1.30
2022-12-23T05:03:34.663Z,1.29
2022-12-23T05:06:01.690Z,1.24
2022-12-23T05:08:28.365Z,1.29
2022-12-23T05:10:55.186Z,1.28
2022-12-23T05:13:22.358Z,1.23
2022-12-23T05:15:51.240Z,1.19
2022-12-23T05:18:17.946Z,1.19
2022-12-23T05:20:44.553Z,1.20
2022-12-23T05:23:11.520Z,1.21
2022-12-23T05:25:39.184Z,1.21
2022-12-23T05:28:09.537Z,1.22
2022-12-23T05:30:36.217Z,1.19
2022-12-23T05:33:03.000Z,1.19
2022-12-23T05:35:29.637Z,1.21
2022-12-23T05:37:57.793Z,1.21
2022-12-23T05:40:27.330Z,1.21
2022-12-23T05:42:59.249Z,1.20
2022-12-23T05:45:25.964Z,1.19
2022-12-23T05:47:52.834Z,1.20
2022-12-23T05:50:19.476Z,1.21
2022-12-23T05:52:46.133Z,1.21
2022-12-23T05:55:12.771Z,1.24
2022-12-23T05:57:39.426Z,1.23
2022-12-23T06:00:06.897Z,1.25
2022-12-23T06:02:33.698Z,1.29
2022-12-23T06:05:00.397Z,1.32
2022-12-23T06:07:27.020Z,1.33
2022-12-23T06:09:53.742Z,1.38
2022-12-23T06:12:20.413Z,1.42
2022-12-23T06:14:47.414Z,1.43
2022-12-23T06:17:14.448Z,1.47
2022-12-23T06:19:41.212Z,1.47
2022-12-23T06:22:07.813Z,1.50
2022-12-23T06:24:34.480Z,1.53
2022-12-23T06:27:01.140Z,1.54
2022-12-23T06:29:27.973Z,1.52
2022-12-23T06:31:54.708Z,1.56
2022-12-23T06:34:21.578Z,1.60
2022-12-23T06:36:48.687Z,1.59
2022-12-23T06:39:15.385Z,1.60
2022-12-23T06:41:41.992Z,1.63
2022-12-23T06:44:09.397Z,1.73
2022-12-23T06:46:36.409Z,1.76
2022-12-23T06:49:10.919Z,1.83
2022-12-23T06:51:39.625Z,1.77
2022-12-23T06:54:06.535Z,1.79
2022-12-23T06:56:33.893Z,1.76
2022-12-23T06:59:00.500Z,1.78
2022-12-23T07:01:27.164Z,1.76
2022-12-23T07:03:53.819Z,1.75
2022-12-23T07:06:20.572Z,1.75
2022-12-23T07:08:47.173Z,1.72
2022-12-23T07:11:13.826Z,1.70
2022-12-23T07:13:41.030Z,1.98
2022-12-23T07:16:09.256Z,1.98
2022-12-23T07:18:36.518Z,2.22
2022-12-23T07:21:03.694Z,1.96
2022-12-23T07:23:30.968Z,2.24
2022-12-23T07:25:57.628Z,2.05
2022-12-23T07:28:24.536Z,1.92
2022-12-23T07:30:51.381Z,2.13
2022-12-23T07:33:18.279Z,1.92
2022-12-23T07:35:44.928Z,1.92
2022-12-23T07:38:11.612Z,1.88
2022-12-23T07:40:38.276Z,1.91
2022-12-23T07:43:05.689Z,1.91
2022-12-23T07:45:32.372Z,1.86
2022-12-23T07:48:01.391Z,1.98
2022-12-23T07:50:28.508Z,1.91
2022-12-23T07:52:55.967Z,1.87
2022-12-23T07:55:22.938Z,1.77
2022-12-23T07:57:50.915Z,1.79
2022-12-23T08:00:19.001Z,1.86
2022-12-23T08:02:46.379Z,1.78
2022-12-23T08:05:14.393Z,1.78
2022-12-23T08:07:41.348Z,1.77
2022-12-23T08:10:08.747Z,1.72
2022-12-23T08:12:35.374Z,1.71
2022-12-23T08:15:02.069Z,1.72
2022-12-23T08:17:30.110Z,1.75
2022-12-23T08:19:57.349Z,1.76
2022-12-23T08:22:24.687Z,1.74
2022-12-23T08:24:52.633Z,1.76
2022-12-23T08:27:19.404Z,1.73
2022-12-23T08:29:49.260Z,1.72
2022-12-23T08:32:15.848Z,1.74
2022-12-23T08:34:42.505Z,1.76
2022-12-23T08:37:09.244Z,1.77
2022-12-23T08:39:36.028Z,1.79
2022-12-23T08:42:03.824Z,1.79
2022-12-23T08:44:31.110Z,1.81
2022-12-23T08:46:57.931Z,1.81
2022-12-23T08:49:24.600Z,1.91
2022-12-23T08:51:51.414Z,2.02
2022-12-23T08:54:22.244Z,2.08
2022-12-23T08:56:48.885Z,2.02
2022-12-23T08:59:19.684Z,2.02
2022-12-23T09:01:47.673Z,2.08
2022-12-23T09:04:14.639Z,2.26
2022-12-23T09:06:42.737Z,2.22
2022-12-23T09:09:12.992Z,2.47
2022-12-23T09:11:40.063Z,2.70
2022-12-23T09:14:08.565Z,2.70
2022-12-23T09:16:35.591Z,2.67
2022-12-23T09:19:02.565Z,2.60
2022-12-23T09:21:29.365Z,2.52
2022-12-23T09:23:56.075Z,2.53
2022-12-23T09:26:26.607Z,2.53
2022-12-23T09:28:53.442Z,2.64
2022-12-23T09:31:21.081Z,2.59
2022-12-23T09:33:49.463Z,2.61
2022-12-23T09:36:16.682Z,2.59
2022-12-23T09:38:43.616Z,2.59
2022-12-23T09:41:46.357Z,2.56
2022-12-23T09:44:28.449Z,2.61
2022-12-23T09:46:59.997Z,2.64
2022-12-23T09:49:27.480Z,2.70
2022-12-23T09:52:00.280Z,2.85
2022-12-23T09:54:31.001Z,2.74
2022-12-23T09:57:04.039Z,2.73
2022-12-23T09:59:31.621Z,2.83
2022-12-23T10:02:05.081Z,2.90
2022-12-23T10:04:37.334Z,2.85
2022-12-23T10:07:17.559Z,2.96
2022-12-23T10:09:47.589Z,3.27
2022-12-23T10:12:27.736Z,3.34
2022-12-23T10:14:59.414Z,3.59
2022-12-23T10:17:30.811Z,3.57
2022-12-23T10:20:01.647Z,3.88
2022-12-23T10:22:41.108Z,3.64
2022-12-23T10:25:17.847Z,3.73
2022-12-23T10:27:45.209Z,3.80
2022-12-23T10:30:42.454Z,3.87
2022-12-23T10:33:23.149Z,3.90
2022-12-23T10:36:15.393Z,3.89
2022-12-23T10:39:00.103Z,3.94
2022-12-23T10:41:57.281Z,3.78
2022-12-23T10:44:49.539Z,3.94
2022-12-23T10:47:25.400Z,3.89
2022-12-23T10:50:22.611Z,3.88
2022-12-23T10:52:50.452Z,3.77
2022-12-23T10:55:31.379Z,3.76
2022-12-23T10:58:06.752Z,3.75
2022-12-23T11:00:38.172Z,3.99
2022-12-23T11:03:18.091Z,4.16
2022-12-23T11:05:46.149Z,4.11
2022-12-23T11:08:12.894Z,4.18
2022-12-23T11:10:40.217Z,4.12
2022-12-23T11:13:07.076Z,4.12
2022-12-23T11:15:38.494Z,4.12
2022-12-23T11:18:06.711Z,4.13
2022-12-23T11:20:35.788Z,4.42
2022-12-23T11:23:04.965Z,4.59
2022-12-23T11:25:46.920Z,4.57
2022-12-23T11:28:17.427Z,4.73
2022-12-23T11:31:08.110Z,4.45
2022-12-23T11:33:39.989Z,4.70
2022-12-23T11:36:15.917Z,4.51
2022-12-23T11:39:17.880Z,4.62
2022-12-23T11:41:49.280Z,4.49
2022-12-23T11:44:34.271Z,4.40
2022-12-23T11:47:19.436Z,4.29
2022-12-23T11:49:49.688Z,4.27
2022-12-23T11:52:20.914Z,4.30
2022-12-23T11:54:54.953Z,4.62
2022-12-23T11:57:38.247Z,4.52
2022-12-23T12:00:08.619Z,4.41
2022-12-23T12:02:41.818Z,4.38
2022-12-23T12:05:22.979Z,4.41
2022-12-23T12:07:51.061Z,4.37
2022-12-23T12:10:25.561Z,4.36
2022-12-23T12:12:56.588Z,4.33
2022-12-23T12:15:40.428Z,4.29
2022-12-23T12:18:11.964Z,4.26
2022-12-23T12:20:45.613Z,4.43
2022-12-23T12:23:22.623Z,4.44
2022-12-23T12:25:59.878Z,4.37
2022-12-23T12:28:37.672Z,4.33
2022-12-23T12:31:26.797Z,4.36
2022-12-23T12:33:57.533Z,4.39
2022-12-23T12:36:39.467Z,4.41
2022-12-23T12:39:18.103Z,4.38
2022-12-23T12:41:58.435Z,4.38
2022-12-23T12:44:38.231Z,4.34
2022-12-23T12:47:36.306Z,4.38
2022-12-23T12:50:06.568Z,4.42
2022-12-23T12:52:40.674Z,4.45
2022-12-23T12:55:21.903Z,4.52
2022-12-23T12:57:48.736Z,4.70
2022-12-23T13:00:20.128Z,4.72
2022-12-23T13:02:47.831Z,4.65
2022-12-23T13:05:30.975Z,4.57
2022-12-23T13:08:14.769Z,4.52
2022-12-23T13:10:49.759Z,4.45
2022-12-23T13:13:42.155Z,4.43
2022-12-23T13:16:36.503Z,4.31
2022-12-23T13:19:19.427Z,4.30
2022-12-23T13:21:56.420Z,4.32
2022-12-23T13:24:53.406Z,4.36
2022-12-23T13:27:41.683Z,4.34
2022-12-23T13:30:13.252Z,4.36
2022-12-23T13:33:10.617Z,4.21
2022-12-23T13:35:52.594Z,4.13
2022-12-23T13:38:49.758Z,4.04
2022-12-23T13:41:39.572Z,4.05
2022-12-23T13:44:09.656Z,4.11
2022-12-23T13:46:37.348Z,4.15
2022-12-23T13:49:24.391Z,4.19
2022-12-23T13:51:51.990Z,4.22
2022-12-23T13:54:33.891Z,4.59
2022-12-23T13:57:09.567Z,4.64
2022-12-23T13:59:41.152Z,4.59
2022-12-23T14:02:38.508Z,4.68
2022-12-23T14:05:10.500Z,4.64
2022-12-23T14:07:44.594Z,4.61
2022-12-23T14:10:21.621Z,4.57
2022-12-23T14:12:49.983Z,4.62
2022-12-23T14:15:32.023Z,4.59
2022-12-23T14:18:29.279Z,4.59
2022-12-23T14:21:04.751Z,4.41
2022-12-23T14:24:05.452Z,4.42
2022-12-23T14:26:50.347Z,4.31
2022-12-23T14:29:52.020Z,4.24
2022-12-23T14:32:26.700Z,4.25
2022-12-23T14:35:18.157Z,4.25
2022-12-23T14:38:04.886Z,4.28
2022-12-23T14:40:52.450Z,4.33
2022-12-23T14:43:30.597Z,4.37
2022-12-23T14:45:59.990Z,4.38
2022-12-23T14:48:46.722Z,4.40
2022-12-23T14:51:14.348Z,4.41
2022-12-23T14:54:00.826Z,4.41
2022-12-23T14:56:51.582Z,4.34
2022-12-23T14:59:19.220Z,4.32
2022-12-23T15:01:50.480Z,4.29
2022-12-23T15:04:19.723Z,4.27
2022-12-23T15:06:52.145Z,4.17
2022-12-23T15:09:24.970Z,4.13
2022-12-23T15:11:52.864Z,4.08
2022-12-23T15:14:31.450Z,3.98
2022-12-23T15:16:58.306Z,3.96
2022-12-23T15:19:27.479Z,3.98
2022-12-23T15:22:22.325Z,3.99
2022-12-23T15:24:52.249Z,4.03
2022-12-23T15:27:29.767Z,4.03
2022-12-23T15:29:57.785Z,3.96
2022-12-23T15:32:25.438Z,4.16
2022-12-23T15:34:55.014Z,3.99
2022-12-23T15:37:27.586Z,3.98
2022-12-23T15:40:03.373Z,4.07
2022-12-23T15:42:38.304Z,3.89
2022-12-23T15:45:38.656Z,3.96
2022-12-23T15:48:21.932Z,4.07
2022-12-23T15:50:50.002Z,3.95
2022-12-23T15:53:18.930Z,3.94
2022-12-23T15:55:48.870Z,3.93
2022-12-23T15:58:20.475Z,4.03
2022-12-23T16:00:57.595Z,3.97
2022-12-23T16:03:34.136Z,4.06
2022-12-23T16:06:16.764Z,3.94
2022-12-23T16:08:45.730Z,3.92
2022-12-23T16:11:16.373Z,3.91
2022-12-23T16:14:00.247Z,3.90
2022-12-23T16:16:39.212Z,3.83
2022-12-23T16:19:06.768Z,3.81
2022-12-23T16:21:36.509Z,3.83
2022-12-23T16:24:08.733Z,3.82
2022-12-23T16:26:42.303Z,3.77
2022-12-23T16:29:10.301Z,4.22
2022-12-23T16:31:45.702Z,3.97
2022-12-23T16:34:17.030Z,4.09
2022-12-23T16:36:43.674Z,3.95
2022-12-23T16:39:25.929Z,3.89
2022-12-23T16:41:52.529Z,3.81
2022-12-23T16:44:19.378Z,3.78
2022-12-23T16:46:49.641Z,3.81
2022-12-23T16:49:19.475Z,3.75
2022-12-23T16:51:46.886Z,3.81
2022-12-23T16:54:16.495Z,3.86
2022-12-23T16:56:46.964Z,3.98
2022-12-23T16:59:14.417Z,3.88
2022-12-23T17:01:45.327Z,3.81
2022-12-23T17:04:12.702Z,3.80
2022-12-23T17:06:40.738Z,3.78
2022-12-23T17:09:10.175Z,3.76
2022-12-23T17:11:42.564Z,3.73
2022-12-23T17:14:16.404Z,3.68
2022-12-23T17:16:43.637Z,3.68
2022-12-23T17:19:11.463Z,3.72
2022-12-23T17:21:39.711Z,3.70
2022-12-23T17:24:14.125Z,3.64
2022-12-23T17:26:40.738Z,3.61
2022-12-23T17:29:07.495Z,3.56
2022-12-23T17:31:34.480Z,3.57
2022-12-23T17:34:02.073Z,3.58
2022-12-23T17:36:29.228Z,3.56
2022-12-23T17:38:56.001Z,3.61
2022-12-23T17:41:28.271Z,3.70
2022-12-23T17:43:55.676Z,3.74
2022-12-23T17:46:22.776Z,3.79
2022-12-23T17:48:49.924Z,3.82
2022-12-23T17:51:18.853Z,3.85
2022-12-23T17:53:50.289Z,3.81
2022-12-23T17:56:20.414Z,3.87
2022-12-23T17:58:49.157Z,3.91
2022-12-23T18:01:32.168Z,4.00
2022-12-23T18:04:00.014Z,4.11
2022-12-23T18:06:30.048Z,4.18
2022-12-23T18:08:57.566Z,4.22
2022-12-23T18:11:42.005Z,4.20
2022-12-23T18:14:16.346Z,4.19
2022-12-23T18:16:43.241Z,4.22
2022-12-23T18:19:17.719Z,4.22
2022-12-23T18:21:44.506Z,4.26
2022-12-23T18:24:11.149Z,4.57
2022-12-23T18:26:38.051Z,4.48
2022-12-23T18:29:04.723Z,4.43
2022-12-23T18:31:31.598Z,4.41
2022-12-23T18:33:59.804Z,4.43
2022-12-23T18:36:29.057Z,4.49
2022-12-23T18:38:57.273Z,4.44
2022-12-23T18:41:25.234Z,4.38
2022-12-23T18:43:52.709Z,4.31
2022-12-23T18:46:20.928Z,4.27
2022-12-23T18:48:48.319Z,4.16
2022-12-23T18:51:17.526Z,4.13
2022-12-23T18:53:44.637Z,4.13
2022-12-23T18:56:14.283Z,4.11
2022-12-23T18:58:41.022Z,4.11
2022-12-23T19:01:12.845Z,4.10
2022-12-23T19:03:40.329Z,4.03
2022-12-23T19:06:08.746Z,4.09
2022-12-23T19:08:37.103Z,4.16
2022-12-23T19:11:13.855Z,4.18
2022-12-23T19:13:40.605Z,4.30
2022-12-23T19:16:07.487Z,4.36
2022-12-23T19:18:34.234Z,4.34
2022-12-23T19:21:04.142Z,4.51
2022-12-23T19:23:30.809Z,4.59
2022-12-23T19:25:57.465Z,4.79
2022-12-23T19:28:24.390Z,4.68
2022-12-23T19:30:51.154Z,4.78
2022-12-23T19:33:17.943Z,4.71
2022-12-23T19:35:44.732Z,4.68
2022-12-23T19:38:12.435Z,4.75
2022-12-23T19:40:40.053Z,4.58
2022-12-23T19:43:07.199Z,4.61
2022-12-23T19:45:34.033Z,4.61
2022-12-23T19:48:00.667Z,4.91
2022-12-23T19:50:28.219Z,4.80
2022-12-23T19:52:56.448Z,4.96
2022-12-23T19:55:24.036Z,4.82
2022-12-23T19:57:51.791Z,4.78
2022-12-23T20:00:18.619Z,4.84
2022-12-23T20:02:45.311Z,4.76
2022-12-23T20:05:12.029Z,4.70
2022-12-23T20:07:38.793Z,4.62
2022-12-23T20:10:06.601Z,4.61
2022-12-23T20:12:33.283Z,4.50
2022-12-23T20:14:59.921Z,4.50
2022-12-23T20:17:26.705Z,4.47
2022-12-23T20:19:53.354Z,4.35
2022-12-23T20:22:20.079Z,4.32
2022-12-23T20:24:46.696Z,4.27
2022-12-23T20:27:15.636Z,4.27
2022-12-23T20:29:42.765Z,4.25
2022-12-23T20:32:12.611Z,4.23
2022-12-23T20:34:40.318Z,4.24
2022-12-23T20:37:07.858Z,4.27
2022-12-23T20:39:34.796Z,4.29
2022-12-23T20:42:01.455Z,4.21
2022-12-23T20:44:36.862Z,4.15
2022-12-23T20:47:06.098Z,4.14
2022-12-23T20:49:33.010Z,4.10
2022-12-23T20:51:59.817Z,4.04
2022-12-23T20:54:32.767Z,4.17
2022-12-23T20:57:04.692Z,4.20
2022-12-23T20:59:31.316Z,4.41
2022-12-23T21:01:59.314Z,4.24
2022-12-23T21:04:26.547Z,4.16
2022-12-23T21:06:53.308Z,4.14
2022-12-23T21:09:20.059Z,4.03
2022-12-23T21:11:47.747Z,3.92
2022-12-23T21:14:15.167Z,3.86
2022-12-23T21:16:42.048Z,3.76
2022-12-23T21:19:13.683Z,3.76
2022-12-23T21:21:40.320Z,3.75
2022-12-23T21:24:07.219Z,3.79
2022-12-23T21:26:34.701Z,3.81
2022-12-23T21:29:04.116Z,3.85
2022-12-23T21:31:32.550Z,3.86
2022-12-23T21:33:59.323Z,3.88
2022-12-23T21:36:30.998Z,3.90
2022-12-23T21:38:59.230Z,3.91
2022-12-23T21:41:29.325Z,3.91
2022-12-23T21:43:57.948Z,4.33
2022-12-23T21:46:25.772Z,5.24
2022-12-23T21:48:55.149Z,6.04
2022-12-23T21:51:25.779Z,6.66
2022-12-23T21:53:55.021Z,7.26
2022-12-23T21:56:25.230Z,7.53
2022-12-23T21:59:01.893Z,7.64
2022-12-23T22:01:29.306Z,7.62
2022-12-23T22:03:56.976Z,7.58
2022-12-23T22:06:27.412Z,7.56
2022-12-23T22:08:55.298Z,7.55
2022-12-23T22:11:25.447Z,7.57
2022-12-23T22:13:52.876Z,7.55
2022-12-23T22:16:22.910Z,7.62
2022-12-23T22:18:50.700Z,7.61
2022-12-23T22:21:20.412Z,7.71
2022-12-23T22:23:48.024Z,7.74
2022-12-23T22:26:22.315Z,7.76
2022-12-23T22:28:51.163Z,7.81
2022-12-23T22:31:19.556Z,7.79
2022-12-23T22:33:46.524Z,7.84
2022-12-23T22:36:14.843Z,7.78
2022-12-23T22:38:43.052Z,7.82
2022-12-23T22:41:10.789Z,7.76
2022-12-23T22:43:37.767Z,7.79
2022-12-23T22:46:05.522Z,7.81
2022-12-23T22:48:32.530Z,7.80
2022-12-23T22:51:13.021Z,7.94
2022-12-23T22:53:39.693Z,7.96
2022-12-23T22:56:07.089Z,8.00
2022-12-23T22:58:34.153Z,8.03
2022-12-23T23:01:01.414Z,8.11
2022-12-23T23:03:28.574Z,8.06
2022-12-23T23:06:07.975Z,8.16
2022-12-23T23:08:35.068Z,8.12
2022-12-23T23:11:04.595Z,8.12
2022-12-23T23:13:33.918Z,8.19
2022-12-23T23:16:01.506Z,8.15
2022-12-23T23:18:29.591Z,8.13
2022-12-23T23:20:56.571Z,8.18
2022-12-23T23:23:23.304Z,8.22
2022-12-23T23:25:50.019Z,8.17
2022-12-23T23:28:16.928Z,8.21
2022-12-23T23:30:43.954Z,8.26
2022-12-23T23:33:10.878Z,8.27
2022-12-23T23:35:37.773Z,8.27
2022-12-23T23:38:04.440Z,8.22
2022-12-23T23:40:31.355Z,8.23
2022-12-23T23:42:58.040Z,8.25
2022-12-23T23:45:24.905Z,8.31
2022-12-23T23:47:51.616Z,8.31
2022-12-23T23:50:18.330Z,8.24
2022-12-23T23:52:45.089Z,8.26
2022-12-23T23:55:12.075Z,8.29
2022-12-23T23:57:38.911Z,8.40
